createdAt,value
2018-07-22T00:02:22.079Z,71.33
2018-07-22T00:04:55.210Z,71.43
2018-07-22T00:07:30.076Z,71.15
2018-07-22T00:10:04.958Z,71.33
2018-07-22T00:12:38.031Z,71.31
2018-07-22T00:15:11.450Z,70.92
2018-07-22T00:17:44.586Z,71.31
2018-07-22T00:20:16.343Z,71.32
2018-07-22T00:22:49.566Z,71.56
2018-07-22T00:25:22.644Z,71.64
2018-07-22T00:27:55.921Z,71.97
2018-07-22T00:30:29.185Z,71.54
2018-07-22T00:33:00.716Z,71.92
2018-07-22T00:35:33.260Z,72.06
2018-07-22T00:38:04.986Z,72.22
2018-07-22T00:40:38.269Z,72.10
2018-07-22T00:43:10.007Z,72.22
2018-07-22T00:45:41.613Z,72.41
2018-07-22T00:48:13.230Z,72.65
2018-07-22T00:50:45.028Z,73.18
2018-07-22T00:53:16.685Z,72.99
2018-07-22T00:55:49.863Z,73.42
2018-07-22T00:58:23.095Z,73.65
2018-07-22T01:00:57.628Z,74.50
2018-07-22T01:03:29.452Z,74.14
2018-07-22T01:06:02.501Z,74.62
2018-07-22T01:08:37.080Z,73.96
2018-07-22T01:11:09.697Z,74.90
2018-07-22T01:13:44.256Z,74.59
2018-07-22T01:16:15.856Z,74.64
2018-07-22T01:18:49.170Z,74.68
2018-07-22T01:21:22.223Z,74.64
2018-07-22T01:23:53.845Z,74.37
2018-07-22T01:26:25.693Z,74.28
2018-07-22T01:28:57.175Z,74.15
2018-07-22T01:31:27.310Z,74.32
2018-07-22T01:33:59.870Z,74.40
2018-07-22T01:36:34.435Z,74.31
2018-07-22T01:39:10.527Z,74.00
2018-07-22T01:41:42.237Z,74.64
2018-07-22T01:44:13.228Z,74.70
2018-07-22T01:46:48.048Z,75.08
2018-07-22T01:49:18.106Z,75.39
2018-07-22T01:51:51.080Z,76.02
2018-07-22T01:54:26.004Z,76.59
2018-07-22T01:56:57.835Z,76.81
2018-07-22T01:59:30.277Z,76.40
2018-07-22T02:02:04.196Z,76.59
2018-07-22T02:04:36.373Z,77.11
2018-07-22T02:07:09.669Z,76.84
2018-07-22T02:09:41.498Z,77.31
2018-07-22T02:12:13.236Z,77.64
2018-07-22T02:14:46.355Z,77.49
2018-07-22T02:17:19.594Z,77.72
2018-07-22T02:19:54.545Z,77.61
2018-07-22T02:22:27.781Z,77.06
2018-07-22T02:25:01.171Z,77.58
2018-07-22T02:27:31.975Z,77.17
2018-07-22T02:30:06.936Z,76.89
2018-07-22T02:32:38.865Z,76.94
2018-07-22T02:35:09.923Z,77.10
2018-07-22T02:37:43.173Z,76.77
2018-07-22T02:40:16.584Z,76.79
2018-07-22T02:42:48.171Z,76.83
2018-07-22T02:45:22.919Z,77.10
2018-07-22T02:47:55.907Z,77.02
2018-07-22T02:50:30.752Z,76.85
2018-07-22T02:53:02.228Z,76.65
2018-07-22T02:55:35.404Z,77.15
2018-07-22T02:58:06.918Z,77.10
2018-07-22T03:00:39.575Z,77.78
2018-07-22T03:03:11.252Z,77.74
2018-07-22T03:05:42.903Z,78.17
2018-07-22T03:08:14.885Z,77.86
2018-07-22T03:10:46.583Z,78.34
2018-07-22T03:13:19.687Z,78.72
2018-07-22T03:15:53.485Z,78.69
2018-07-22T03:18:28.102Z,78.96
2018-07-22T03:21:01.460Z,79.33
2018-07-22T03:23:34.496Z,80.07
2018-07-22T03:26:08.078Z,79.87
2018-07-22T03:28:41.140Z,80.15
2018-07-22T03:31:14.068Z,80.36
2018-07-22T03:33:48.786Z,80.78
2018-07-22T03:36:22.039Z,81.05
2018-07-22T03:38:55.114Z,81.17
2018-07-22T03:41:28.453Z,81.27
2018-07-22T03:44:00.335Z,81.52
2018-07-22T03:46:33.254Z,81.83
2018-07-22T03:49:08.070Z,81.64
2018-07-22T03:51:41.175Z,81.87
2018-07-22T03:54:15.810Z,81.91
2018-07-22T03:56:48.132Z,82.07
2018-07-22T03:59:21.237Z,82.23
2018-07-22T04:01:52.975Z,82.05
2018-07-22T04:04:24.652Z,81.88
2018-07-22T04:06:54.203Z,81.56
2018-07-22T04:09:26.414Z,81.18
2018-07-22T04:11:59.693Z,80.71
2018-07-22T04:14:33.077Z,79.70
2018-07-22T04:17:06.462Z,79.07
2018-07-22T04:19:39.703Z,78.92
2018-07-22T04:22:10.930Z,78.19
2018-07-22T04:24:44.083Z,76.95
2018-07-22T04:27:18.640Z,78.16
2018-07-22T04:29:50.158Z,77.43
2018-07-22T04:32:22.231Z,76.20
2018-07-22T04:34:55.449Z,74.93
2018-07-22T04:37:29.914Z,73.78
2018-07-22T04:40:01.518Z,72.81
2018-07-22T04:42:31.713Z,72.06
2018-07-22T04:45:01.260Z,70.61
2018-07-22T04:47:32.893Z,69.45
2018-07-22T04:50:07.205Z,69.00
2018-07-22T04:52:38.064Z,67.81
2018-07-22T04:55:10.155Z,68.22
2018-07-22T04:57:43.186Z,67.09
2018-07-22T05:00:16.437Z,65.62
2018-07-22T05:02:49.444Z,64.47
2018-07-22T05:05:22.431Z,64.23
2018-07-22T05:07:52.586Z,63.43
2018-07-22T05:10:25.746Z,63.03
2018-07-22T05:12:58.859Z,61.99
2018-07-22T05:15:33.514Z,62.31
2018-07-22T05:18:06.541Z,61.70
2018-07-22T05:20:40.530Z,60.37
2018-07-22T05:23:14.000Z,60.11
2018-07-22T05:25:48.694Z,59.47
2018-07-22T05:28:20.091Z,58.00
2018-07-22T05:30:51.536Z,59.34
2018-07-22T05:33:21.497Z,59.48
2018-07-22T05:35:54.870Z,59.61
2018-07-22T05:38:26.647Z,59.23
2018-07-22T05:40:59.712Z,59.56
2018-07-22T05:43:34.060Z,57.85
2018-07-22T05:46:06.124Z,59.13
2018-07-22T05:48:37.688Z,56.95
2018-07-22T05:51:12.184Z,57.13
2018-07-22T05:53:46.689Z,57.42
2018-07-22T05:56:16.654Z,57.53
2018-07-22T05:58:49.638Z,59.40
2018-07-22T06:01:19.644Z,57.27
2018-07-22T06:03:50.810Z,56.38
2018-07-22T06:06:24.000Z,54.64
2018-07-22T06:08:56.882Z,54.18
2018-07-22T06:11:29.828Z,54.88
2018-07-22T06:14:02.947Z,51.58
2018-07-22T06:16:37.502Z,51.67
2018-07-22T06:19:08.973Z,54.08
2018-07-22T06:21:41.939Z,53.33
2018-07-22T06:24:16.687Z,53.99
2018-07-22T06:26:49.047Z,52.01
2018-07-22T06:29:23.459Z,50.02
2018-07-22T06:31:58.050Z,48.75
2018-07-22T06:34:31.107Z,49.10
2018-07-22T06:37:02.990Z,46.97
2018-07-22T06:39:35.914Z,46.43
2018-07-22T06:42:10.296Z,47.08
2018-07-22T06:44:41.013Z,48.85
2018-07-22T06:47:14.083Z,47.31
2018-07-22T06:49:47.166Z,47.18
2018-07-22T06:52:21.573Z,46.32
2018-07-22T06:54:53.046Z,46.08
2018-07-22T06:57:25.386Z,44.98
2018-07-22T06:59:58.499Z,44.61
2018-07-22T07:02:30.499Z,45.10
2018-07-22T07:05:05.304Z,45.04
2018-07-22T07:07:39.666Z,45.95
2018-07-22T07:10:14.222Z,43.84
2018-07-22T07:12:47.461Z,43.03
2018-07-22T07:15:21.997Z,42.58
2018-07-22T07:17:53.592Z,42.47
2018-07-22T07:20:25.127Z,41.25
2018-07-22T07:22:59.740Z,40.31
2018-07-22T07:25:32.909Z,39.28
2018-07-22T07:28:04.478Z,40.57
2018-07-22T07:30:34.392Z,39.18
2018-07-22T07:33:05.956Z,38.66
2018-07-22T07:35:37.585Z,38.17
2018-07-22T07:38:09.023Z,39.00
2018-07-22T07:40:41.898Z,40.34
2018-07-22T07:43:14.817Z,37.69
2018-07-22T07:45:45.225Z,39.53
2018-07-22T07:48:19.634Z,39.51
2018-07-22T07:50:51.231Z,37.56
2018-07-22T07:53:21.202Z,36.28
2018-07-22T07:55:54.208Z,38.95
2018-07-22T07:58:28.633Z,38.39
2018-07-22T08:01:00.102Z,37.61
2018-07-22T08:03:33.010Z,36.88
2018-07-22T08:06:06.382Z,38.04
2018-07-22T08:08:37.382Z,36.32
2018-07-22T08:11:09.800Z,34.55
2018-07-22T08:13:42.821Z,32.72
2018-07-22T08:16:14.263Z,31.88
2018-07-22T08:18:47.202Z,33.01
2018-07-22T08:21:21.654Z,32.68
2018-07-22T08:23:51.449Z,35.63
2018-07-22T08:26:21.362Z,32.34
2018-07-22T08:29:28.311Z,31.15
2018-07-22T08:31:58.414Z,35.21
2018-07-22T08:34:31.172Z,34.97
2018-07-22T08:37:03.828Z,34.92
2018-07-22T08:39:35.998Z,36.47
2018-07-22T08:42:06.194Z,35.79
2018-07-22T08:44:40.533Z,34.18
2018-07-22T08:47:13.567Z,33.01
2018-07-22T08:49:46.473Z,32.39
2018-07-22T08:52:21.268Z,33.06
2018-07-22T08:54:54.264Z,32.38
2018-07-22T08:57:28.760Z,33.07
2018-07-22T09:00:03.040Z,32.97
2018-07-22T09:02:35.254Z,32.59
2018-07-22T09:05:06.603Z,33.63
2018-07-22T09:07:41.090Z,34.48
2018-07-22T09:10:14.067Z,32.61
2018-07-22T09:12:46.939Z,30.25
2018-07-22T09:15:19.883Z,31.87
2018-07-22T09:17:54.430Z,33.76
2018-07-22T09:20:26.252Z,33.20
2018-07-22T09:22:59.340Z,33.33
2018-07-22T09:25:30.872Z,32.43
2018-07-22T09:28:03.801Z,33.58
2018-07-22T09:30:35.226Z,33.19
2018-07-22T09:33:05.182Z,32.19
2018-07-22T09:35:38.140Z,32.06
2018-07-22T09:38:09.676Z,32.41
2018-07-22T09:40:42.496Z,32.78
2018-07-22T09:43:13.893Z,32.46
2018-07-22T09:45:47.612Z,32.15
2018-07-22T09:48:21.800Z,31.82
2018-07-22T09:50:53.314Z,30.24
2018-07-22T09:53:23.302Z,31.18
2018-07-22T09:55:55.353Z,31.06
2018-07-22T09:58:29.651Z,31.50
2018-07-22T10:01:03.815Z,32.20
2018-07-22T10:03:35.344Z,31.35
2018-07-22T10:06:06.948Z,32.29
2018-07-22T10:08:36.904Z,30.04
2018-07-22T10:11:10.070Z,33.03
2018-07-22T10:13:43.063Z,33.94
2018-07-22T10:16:14.450Z,34.34
2018-07-22T10:18:48.798Z,34.87
2018-07-22T10:21:21.752Z,33.87
2018-07-22T10:23:53.701Z,33.35
2018-07-22T10:26:26.876Z,30.84
2018-07-22T10:28:58.250Z,30.81
2018-07-22T10:31:29.679Z,31.77
2018-07-22T10:34:03.972Z,31.79
2018-07-22T10:36:36.858Z,31.35
2018-07-22T10:39:11.273Z,31.87
2018-07-22T10:41:45.637Z,31.37
2018-07-22T10:44:21.096Z,31.59
2018-07-22T10:46:54.577Z,31.70
2018-07-22T10:49:27.601Z,30.04
2018-07-22T10:52:00.011Z,32.76
2018-07-22T10:54:31.397Z,32.30
2018-07-22T10:57:04.465Z,31.12
2018-07-22T10:59:37.443Z,30.97
2018-07-22T11:02:09.426Z,30.66
2018-07-22T11:04:39.283Z,29.41
2018-07-22T11:07:10.776Z,31.26
2018-07-22T11:09:42.727Z,30.99
2018-07-22T11:12:14.184Z,31.77
2018-07-22T11:14:48.743Z,32.05
2018-07-22T11:17:21.487Z,30.94
2018-07-22T11:19:53.644Z,32.84
2018-07-22T11:22:27.142Z,33.77
2018-07-22T11:24:57.788Z,31.71
2018-07-22T11:27:30.701Z,32.31
2018-07-22T11:30:05.282Z,33.92
2018-07-22T11:32:38.315Z,32.05
2018-07-22T11:35:11.447Z,31.92
2018-07-22T11:37:41.999Z,32.51
2018-07-22T11:40:14.821Z,33.43
2018-07-22T11:42:44.710Z,34.54
2018-07-22T11:45:19.161Z,33.83
2018-07-22T11:47:50.676Z,34.36
2018-07-22T11:50:19.811Z,33.07
2018-07-22T11:52:52.765Z,32.62
2018-07-22T11:55:27.108Z,33.20
2018-07-22T11:57:58.475Z,35.35
2018-07-22T12:00:30.977Z,34.86
2018-07-22T12:03:01.096Z,35.67
2018-07-22T12:05:33.971Z,35.83
2018-07-22T12:08:07.247Z,34.12
2018-07-22T12:10:40.153Z,33.83
2018-07-22T12:13:12.084Z,35.54
2018-07-22T12:15:44.962Z,34.32
2018-07-22T12:18:14.053Z,33.82
2018-07-22T12:20:47.168Z,33.37
2018-07-22T12:23:18.545Z,33.21
2018-07-22T12:25:51.396Z,32.57
2018-07-22T12:28:23.073Z,33.04
2018-07-22T12:30:55.595Z,32.23
2018-07-22T12:33:28.437Z,33.54
2018-07-22T12:35:58.258Z,32.08
2018-07-22T12:38:29.618Z,33.44
2018-07-22T12:41:02.508Z,33.61
2018-07-22T12:43:33.937Z,32.77
2018-07-22T12:46:08.424Z,32.42
2018-07-22T12:48:41.291Z,32.40
2018-07-22T12:51:11.472Z,32.43
2018-07-22T12:53:42.012Z,32.52
2018-07-22T12:56:14.874Z,32.69
2018-07-22T12:58:47.790Z,32.95
2018-07-22T13:01:17.793Z,32.94
2018-07-22T13:03:47.611Z,32.54
2018-07-22T13:06:19.085Z,33.67
2018-07-22T13:08:50.512Z,34.09
2018-07-22T13:11:21.930Z,32.86
2018-07-22T13:13:56.567Z,33.41
2018-07-22T13:16:29.402Z,30.25
2018-07-22T13:19:00.898Z,30.21
2018-07-22T13:21:33.677Z,29.84
2018-07-22T13:24:05.246Z,30.94
2018-07-22T13:26:36.734Z,31.01
2018-07-22T13:29:09.068Z,29.07
2018-07-22T13:31:42.025Z,30.12
2018-07-22T13:34:13.461Z,30.10
2018-07-22T13:36:43.531Z,30.17
2018-07-22T13:39:15.063Z,30.07
2018-07-22T13:41:47.868Z,29.00
2018-07-22T13:44:19.765Z,30.15
2018-07-22T13:46:51.362Z,29.70
2018-07-22T13:49:24.370Z,29.78
2018-07-22T13:51:55.352Z,30.49
2018-07-22T13:54:28.179Z,31.14
2018-07-22T13:57:01.259Z,31.08
2018-07-22T13:59:31.324Z,31.39
2018-07-22T14:02:04.387Z,31.46
2018-07-22T14:04:37.429Z,32.11
2018-07-22T14:07:10.506Z,32.68
2018-07-22T14:09:41.874Z,32.55
2018-07-22T14:12:13.305Z,33.98
2018-07-22T14:14:46.302Z,34.54
2018-07-22T14:17:16.873Z,34.96
2018-07-22T14:19:48.248Z,35.74
2018-07-22T14:22:18.325Z,35.00
2018-07-22T14:24:49.874Z,32.85
2018-07-22T14:27:21.546Z,31.29
2018-07-22T14:29:53.067Z,31.08
2018-07-22T14:32:25.182Z,31.89
2018-07-22T14:34:55.165Z,32.24
2018-07-22T14:37:25.104Z,32.05
2018-07-22T14:39:58.146Z,31.78
2018-07-22T14:42:30.327Z,32.18
2018-07-22T14:45:01.759Z,31.96
2018-07-22T14:47:31.826Z,30.84
2018-07-22T14:50:03.242Z,30.99
2018-07-22T14:52:36.139Z,31.83
2018-07-22T14:55:09.090Z,32.66
2018-07-22T14:57:42.070Z,33.38
2018-07-22T15:00:14.333Z,32.79
2018-07-22T15:02:45.653Z,33.39
2018-07-22T15:05:17.735Z,32.68
2018-07-22T15:07:49.677Z,33.26
2018-07-22T15:10:23.998Z,34.04
2018-07-22T15:12:55.914Z,33.99
2018-07-22T15:15:27.332Z,34.50
2018-07-22T15:17:58.746Z,35.45
2018-07-22T15:20:31.688Z,35.52
2018-07-22T15:23:06.119Z,35.66
2018-07-22T15:25:39.041Z,36.68
2018-07-22T15:28:10.445Z,36.57
2018-07-22T15:30:40.400Z,36.41
2018-07-22T15:33:14.829Z,37.07
2018-07-22T15:35:45.706Z,37.82
2018-07-22T15:38:18.653Z,37.82
2018-07-22T15:40:48.551Z,37.55
2018-07-22T15:43:22.315Z,38.26
2018-07-22T15:45:56.728Z,38.00
2018-07-22T15:48:28.799Z,38.14
2018-07-22T15:51:03.464Z,37.98
2018-07-22T15:53:37.863Z,38.98
2018-07-22T15:56:10.839Z,39.49
2018-07-22T15:58:43.737Z,38.96
2018-07-22T16:01:13.717Z,38.56
2018-07-22T16:03:45.550Z,38.99
2018-07-22T16:06:18.454Z,39.22
2018-07-22T16:08:50.757Z,42.35
2018-07-22T16:11:23.698Z,41.33
2018-07-22T16:13:56.657Z,40.92
2018-07-22T16:16:29.739Z,40.96
2018-07-22T16:19:01.295Z,42.00
2018-07-22T16:21:31.210Z,41.96
2018-07-22T16:24:02.600Z,42.21
2018-07-22T16:26:33.915Z,41.84
2018-07-22T16:29:05.074Z,42.50
2018-07-22T16:31:37.962Z,43.49
2018-07-22T16:34:10.873Z,43.02
2018-07-22T16:36:42.367Z,43.31
2018-07-22T16:39:14.304Z,44.42
2018-07-22T16:41:48.928Z,45.06
2018-07-22T16:44:22.109Z,44.23
2018-07-22T16:46:56.475Z,43.61
2018-07-22T16:49:30.801Z,44.83
2018-07-22T16:52:02.168Z,44.63
2018-07-22T16:54:36.602Z,44.27
2018-07-22T16:57:08.138Z,44.92
2018-07-22T16:59:39.596Z,44.56
2018-07-22T17:02:14.068Z,45.58
2018-07-22T17:04:46.558Z,45.01
2018-07-22T17:07:19.526Z,45.45
2018-07-22T17:09:52.436Z,44.85
2018-07-22T17:12:25.441Z,44.76
2018-07-22T17:14:58.360Z,45.12
2018-07-22T17:17:31.414Z,45.90
2018-07-22T17:20:04.436Z,45.43
2018-07-22T17:22:37.714Z,45.71
2018-07-22T17:25:12.061Z,45.98
2018-07-22T17:27:46.514Z,45.98
2018-07-22T17:30:16.623Z,47.11
2018-07-22T17:32:46.547Z,46.73
2018-07-22T17:35:18.103Z,46.69
2018-07-22T17:37:51.083Z,47.15
2018-07-22T17:40:22.491Z,47.29
2018-07-22T17:42:53.897Z,48.03
2018-07-22T17:45:27.108Z,47.85
2018-07-22T17:47:58.580Z,48.10
2018-07-22T17:50:32.959Z,48.11
2018-07-22T17:53:04.732Z,48.48
2018-07-22T17:55:37.763Z,49.01
2018-07-22T17:58:10.815Z,48.69
2018-07-22T18:00:42.444Z,48.70
2018-07-22T18:03:32.217Z,48.84
2018-07-22T18:06:03.627Z,48.57
2018-07-22T18:08:34.720Z,48.97
2018-07-22T18:11:07.595Z,48.86
2018-07-22T18:13:40.659Z,49.62
2018-07-22T18:16:13.770Z,49.79
2018-07-22T18:18:47.055Z,49.51
2018-07-22T18:21:21.477Z,49.69
2018-07-22T18:23:53.469Z,50.10
2018-07-22T18:26:25.083Z,50.04
2018-07-22T18:28:58.391Z,50.07
2018-07-22T18:31:30.448Z,49.84
2018-07-22T18:34:01.933Z,49.75
2018-07-22T18:36:34.001Z,50.58
2018-07-22T18:39:07.432Z,50.52
2018-07-22T18:41:40.450Z,51.00
2018-07-22T18:44:11.813Z,50.57
2018-07-22T18:46:44.017Z,50.63
2018-07-22T18:49:17.042Z,51.03
2018-07-22T18:51:48.566Z,50.90
2018-07-22T18:54:21.119Z,51.41
2018-07-22T18:56:51.001Z,51.22
2018-07-22T18:59:24.059Z,51.65
2018-07-22T19:01:55.444Z,51.11
2018-07-22T19:04:27.551Z,51.68
2018-07-22T19:06:59.271Z,51.59
2018-07-22T19:09:32.374Z,50.84
2018-07-22T19:12:05.358Z,51.50
2018-07-22T19:14:37.521Z,50.89
2018-07-22T19:17:08.225Z,50.80
2018-07-22T19:19:42.806Z,51.94
2018-07-22T19:22:15.669Z,52.19
2018-07-22T19:24:47.159Z,52.05
2018-07-22T19:27:21.651Z,51.76
2018-07-22T19:29:54.652Z,51.95
2018-07-22T19:32:24.621Z,51.93
2018-07-22T19:34:59.039Z,51.94
2018-07-22T19:37:30.603Z,51.71
2018-07-22T19:40:03.766Z,51.48
2018-07-22T19:42:36.891Z,52.03
2018-07-22T19:45:10.484Z,51.58
2018-07-22T19:47:43.351Z,51.58
2018-07-22T19:50:16.233Z,51.04
2018-07-22T19:52:47.764Z,51.36
2018-07-22T19:55:19.270Z,51.55
2018-07-22T19:57:53.283Z,52.17
2018-07-22T20:00:26.410Z,52.04
2018-07-22T20:02:59.460Z,52.47
2018-07-22T20:05:31.117Z,53.24
2018-07-22T20:08:02.531Z,53.47
2018-07-22T20:10:34.025Z,54.38
2018-07-22T20:13:04.217Z,54.67
2018-07-22T20:15:37.081Z,55.28
2018-07-22T20:18:10.352Z,55.22
2018-07-22T20:20:43.478Z,55.68
2018-07-22T20:23:16.471Z,56.38
2018-07-22T20:25:49.584Z,56.04
2018-07-22T20:28:24.191Z,56.36
2018-07-22T20:30:57.063Z,56.63
2018-07-22T20:33:27.102Z,57.16
2018-07-22T20:36:00.202Z,57.18
2018-07-22T20:38:34.950Z,57.37
2018-07-22T20:41:07.942Z,57.48
2018-07-22T20:43:39.573Z,57.70
2018-07-22T20:46:11.303Z,58.03
2018-07-22T20:48:44.334Z,58.39
2018-07-22T20:51:15.855Z,58.21
2018-07-22T20:53:48.550Z,58.54
2018-07-22T20:56:20.336Z,58.65
2018-07-22T20:58:53.250Z,58.86
2018-07-22T21:01:26.373Z,58.86
2018-07-22T21:03:57.849Z,59.58
2018-07-22T21:06:29.469Z,59.73
2018-07-22T21:09:00.956Z,60.23
2018-07-22T21:12:04.034Z,60.79
2018-07-22T21:14:35.659Z,60.75
2018-07-22T21:17:07.197Z,61.46
2018-07-22T21:19:40.326Z,61.30
2018-07-22T21:22:13.757Z,61.31
2018-07-22T21:24:45.177Z,61.55
2018-07-22T21:27:18.609Z,61.88
2018-07-22T21:29:50.124Z,62.33
2018-07-22T21:32:23.119Z,61.89
2018-07-22T21:34:54.996Z,62.71
2018-07-22T21:37:26.837Z,62.40
2018-07-22T21:40:01.536Z,62.96
2018-07-22T21:42:34.663Z,63.00
2018-07-22T21:45:08.584Z,63.32
2018-07-22T21:47:41.624Z,63.49
2018-07-22T21:50:14.750Z,63.44
2018-07-22T21:52:48.382Z,63.53
2018-07-22T21:55:20.927Z,63.69
2018-07-22T21:57:53.901Z,64.04
2018-07-22T22:00:48.029Z,64.58
2018-07-22T22:03:21.152Z,64.14
2018-07-22T22:05:54.436Z,64.17
2018-07-22T22:08:24.650Z,64.09
2018-07-22T22:10:56.864Z,64.02
2018-07-22T22:13:31.548Z,64.35
2018-07-22T22:16:01.605Z,64.18
2018-07-22T22:18:34.597Z,64.63
2018-07-22T22:21:06.309Z,64.82
2018-07-22T22:23:37.737Z,65.22
2018-07-22T22:26:10.960Z,65.22
2018-07-22T22:28:42.421Z,65.31
2018-07-22T22:31:15.359Z,65.52
2018-07-22T22:33:49.896Z,65.60
2018-07-22T22:36:23.844Z,65.74
2018-07-22T22:38:59.023Z,66.78
2018-07-22T22:41:33.546Z,66.76
2018-07-22T22:44:03.555Z,66.65
2018-07-22T22:46:35.054Z,66.28
2018-07-22T22:49:10.213Z,66.22
2018-07-22T22:51:43.312Z,66.53
2018-07-22T22:54:16.511Z,66.56
2018-07-22T22:56:46.531Z,66.32
2018-07-22T22:59:24.855Z,66.24
2018-07-22T23:01:57.968Z,66.18
2018-07-22T23:04:29.521Z,66.53
2018-07-22T23:07:02.146Z,66.40
2018-07-22T23:09:35.184Z,66.45
2018-07-22T23:12:08.188Z,66.75
2018-07-22T23:14:39.840Z,66.85
2018-07-22T23:17:14.544Z,67.10
2018-07-22T23:19:47.705Z,66.86
2018-07-22T23:22:20.891Z,66.68
2018-07-22T23:24:55.562Z,66.93
2018-07-22T23:27:28.599Z,67.15
2018-07-22T23:29:58.707Z,67.43
2018-07-22T23:32:31.934Z,67.74
2018-07-22T23:35:04.972Z,67.71
2018-07-22T23:37:39.480Z,67.30
2018-07-22T23:40:10.251Z,67.06
2018-07-22T23:42:42.034Z,67.53
2018-07-22T23:45:15.146Z,67.93
2018-07-22T23:47:48.386Z,68.17
2018-07-22T23:50:22.257Z,68.04
2018-07-22T23:52:55.426Z,68.31
2018-07-22T23:55:27.306Z,68.02
2018-07-22T23:57:58.802Z,67.77
